Time;durP1;ratioP1;P1;durP2;ratioP2;P2;SDS_P1;SDS_P2;PMS_P1;PMS_P2;Temp;Humidity;BMP_temperature;BMP_pressure;BME280_temperature;BME280_humidity;BME280_pressure;Samples;Min_cycle;Max_cycle;Signal;HPM_P1;HPM_P2
2023/03/24 00:02:09;;;;;;;;;;;;;;;16.82;73.33;101032.41;7402401;19;2148;-43
2023/03/24 00:04:39;;;;;;;;;;;;;;;16.79;73.30;101033.47;7406151;19;1828;-43
2023/03/24 00:07:08;;;;;;;;;;;;;;;16.80;73.53;101023.63;7404920;19;1841;-43
2023/03/24 00:09:36;;;;;;;;;;;;;;;16.78;73.15;101046.91;7405482;19;1802;-43
2023/03/24 00:12:05;;;;;;;;;;;;;;;16.76;73.32;101023.00;7404961;19;2001;-43
2023/03/24 00:14:33;;;;;;;;;;;;;;;16.74;73.53;101032.94;7405463;19;2107;-43
2023/03/24 00:17:02;;;;;;;;;;;;;;;16.75;73.54;101018.63;7404634;19;1786;-43
2023/03/24 00:19:37;;;;;;;;;;;;;;;16.74;73.62;101024.09;7404160;19;2093;-43
2023/03/24 00:22:05;;;;;;;;;;;;;;;16.76;73.33;101019.47;7405070;19;2036;-43
2023/03/24 00:24:34;;;;;;;;;;;;;;;16.74;73.20;101010.72;7405604;19;1711;-43
2023/03/24 00:27:03;;;;;;;;;;;;;;;16.73;72.93;101012.53;7404288;19;2019;-43
2023/03/24 00:29:32;;;;;;;;;;;;;;;16.72;73.35;100996.63;7405627;19;968;-43
2023/03/24 00:32:01;;;;;;;;;;;;;;;16.72;73.66;101010.84;7403935;19;2090;-43
2023/03/24 00:34:29;;;;;;;;;;;;;;;16.71;73.31;101006.44;7405251;19;2012;-43
2023/03/24 00:37:00;;;;;;;;;;;;;;;16.74;74.27;100994.69;7402573;19;1519;-43
2023/03/24 00:39:28;;;;;;;;;;;;;;;16.84;74.62;100985.06;7402415;19;2030;-43
2023/03/24 00:42:00;;;;;;;;;;;;;;;16.81;74.63;100998.59;7403102;19;1713;-43
2023/03/24 00:44:29;;;;;;;;;;;;;;;16.77;74.62;100991.78;7402025;19;2204;-43
2023/03/24 00:46:59;;;;;;;;;;;;;;;16.72;74.46;100983.28;7404254;19;2150;-43
2023/03/24 00:52:16;;;;;;;;;;;;;;;16.70;74.19;100978.06;7401023;19;2979;-43
2023/03/24 00:54:46;;;;;;;;;;;;;;;16.72;74.43;100993.97;7403362;19;1808;-43
2023/03/24 00:57:15;;;;;;;;;;;;;;;16.71;74.06;100990.41;7403830;19;1669;-43
2023/03/24 00:59:47;;;;;;;;;;;;;;;16.72;74.33;100991.28;7403032;19;1564;-43
2023/03/24 01:02:18;;;;;;;;;;;;;;;16.72;73.94;100985.97;7402738;19;1720;-43
2023/03/24 01:04:46;;;;;;;;;;;;;;;16.68;74.05;100972.81;7403604;19;1242;-43
2023/03/24 01:07:19;;;;;;;;;;;;;;;16.65;73.89;100989.09;7403106;19;1713;-43
2023/03/24 01:09:50;;;;;;;;;;;;;;;16.66;73.93;100989.94;7402856;19;2196;-43
2023/03/24 01:12:20;;;;;;;;;;;;;;;16.67;73.61;100995.16;7404009;19;1918;-43
2023/03/24 01:14:49;;;;;;;;;;;;;;;16.67;73.81;101005.84;7403182;19;2054;-43
2023/03/24 01:17:18;;;;;;;;;;;;;;;16.65;73.44;101005.09;7402893;19;2030;-43
2023/03/24 01:19:46;;;;;;;;;;;;;;;16.63;73.47;101007.03;7402495;19;2052;-43
2023/03/24 01:22:15;;;;;;;;;;;;;;;16.62;73.25;100999.16;7401700;19;2059;-43
2023/03/24 01:24:46;;;;;;;;;;;;;;;16.61;73.45;101008.09;7399120;19;1836;-43
2023/03/24 01:27:15;;;;;;;;;;;;;;;16.62;73.41;101004.47;7403373;19;2028;-43
2023/03/24 01:29:43;;;;;;;;;;;;;;;16.58;73.12;100997.66;7403941;19;955;-43
2023/03/24 01:32:12;;;;;;;;;;;;;;;16.60;73.07;100996.56;7401929;19;2189;-43
2023/03/24 01:34:40;;;;;;;;;;;;;;;16.62;73.33;100994.66;7401211;19;1596;-43
2023/03/24 01:37:08;;;;;;;;;;;;;;;16.57;73.33;100987.94;7401701;19;1636;-43
2023/03/24 01:39:37;;;;;;;;;;;;;;;16.56;73.93;100989.75;7399078;19;1723;-43
2023/03/24 01:42:13;;;;;;;;;;;;;;;16.57;73.25;100995.94;7402329;19;1824;-43
2023/03/24 01:44:41;;;;;;;;;;;;;;;16.54;72.70;100991.69;7400525;19;1850;-43
2023/03/24 01:47:10;;;;;;;;;;;;;;;16.57;73.17;100996.78;7401278;19;1717;-43
2023/03/24 01:49:40;;;;;;;;;;;;;;;16.53;72.89;100984.63;7401955;19;1757;-43
2023/03/24 01:52:11;;;;;;;;;;;;;;;16.54;73.31;101002.38;7401018;19;1636;-43
2023/03/24 01:54:42;;;;;;;;;;;;;;;16.57;73.03;101018.16;7402786;19;1364;-43
2023/03/24 01:57:14;;;;;;;;;;;;;;;16.55;73.83;101020.09;7401181;19;1713;-43
2023/03/24 01:59:46;;;;;;;;;;;;;;;16.59;73.67;101034.06;7400888;19;1739;-43
2023/03/24 02:02:14;;;;;;;;;;;;;;;16.59;73.29;101029.59;7401005;19;1708;-43
2023/03/24 02:04:44;;;;;;;;;;;;;;;16.60;73.16;101039.28;7400111;19;1865;-43
2023/03/24 02:07:15;;;;;;;;;;;;;;;16.60;73.10;101019.75;7400527;19;1913;-43
2023/03/24 02:09:43;;;;;;;;;;;;;;;16.55;73.22;101003.22;7400997;19;1522;-43
2023/03/24 02:12:15;;;;;;;;;;;;;;;16.55;73.02;100998.72;7401273;19;1789;-43
2023/03/24 02:14:43;;;;;;;;;;;;;;;16.55;73.06;100995.22;7400044;19;1720;-43
2023/03/24 02:17:20;;;;;;;;;;;;;;;16.53;72.18;100976.63;7399370;19;1817;-43
2023/03/24 02:20:10;;;;;;;;;;;;;;;16.52;73.17;100980.28;7400359;19;1759;-43
2023/03/24 02:22:53;;;;;;;;;;;;;;;16.50;72.62;100976.88;7400826;19;1742;-43
2023/03/24 02:25:36;;;;;;;;;;;;;;;16.49;73.01;100972.50;7400920;19;1831;-43
2023/03/24 02:28:19;;;;;;;;;;;;;;;16.48;72.80;100970.81;7400941;19;1800;-43
2023/03/24 02:31:03;;;;;;;;;;;;;;;16.52;72.98;100982.94;7400974;19;2690;-43
2023/03/24 02:33:44;;;;;;;;;;;;;;;16.49;73.35;100983.16;7400603;19;1143;-43
2023/03/24 02:36:33;;;;;;;;;;;;;;;16.46;73.07;100956.72;7398067;19;2171;-43
2023/03/24 02:39:17;;;;;;;;;;;;;;;16.47;72.63;100963.75;7397725;19;2144;-44
2023/03/24 02:41:51;;;;;;;;;;;;;;;16.48;72.72;100970.81;7400280;19;1837;-43
2023/03/24 02:44:22;;;;;;;;;;;;;;;16.45;72.59;100965.66;7398719;19;1854;-43
2023/03/24 02:46:54;;;;;;;;;;;;;;;16.44;72.84;100964.84;7399411;19;2114;-43
2023/03/24 02:49:30;;;;;;;;;;;;;;;16.50;73.02;100950.19;7398529;19;2086;-43
2023/03/24 02:52:02;;;;;;;;;;;;;;;17.47;70.51;100948.16;7406226;19;2024;-43
2023/03/24 02:54:33;;;;;;;;;;;;;;;18.26;68.00;100938.22;7408470;19;1965;-43
2023/03/24 02:57:07;;;;;;;;;;;;;;;19.28;65.36;100935.03;7407888;19;1991;-43
2023/03/24 02:59:38;;;;;;;;;;;;;;;19.62;64.31;100945.50;7408022;19;1028;-44
2023/03/24 03:02:09;;;;;;;;;;;;;;;19.65;64.46;100932.63;7408524;19;2048;-43
2023/03/24 03:04:40;;;;;;;;;;;;;;;19.35;65.49;100933.50;7404968;19;1849;-44
2023/03/24 03:07:11;;;;;;;;;;;;;;;19.28;65.75;100940.41;7406341;19;2175;-43
2023/03/24 03:09:42;;;;;;;;;;;;;;;19.27;65.79;100949.41;7408070;19;1758;-43
2023/03/24 03:12:14;;;;;;;;;;;;;;;19.17;66.23;100940.47;7407060;19;1870;-43
2023/03/24 03:14:45;;;;;;;;;;;;;;;19.18;66.42;100936.78;7406510;19;1799;-44
2023/03/24 03:17:17;;;;;;;;;;;;;;;19.16;66.20;100944.13;7406260;19;2040;-43
2023/03/24 03:19:49;;;;;;;;;;;;;;;19.24;66.13;100942.50;7406422;19;2101;-43
2023/03/24 03:22:19;;;;;;;;;;;;;;;19.20;66.23;100954.47;7405232;19;1799;-43
2023/03/24 03:24:51;;;;;;;;;;;;;;;19.27;65.95;100958.31;7403243;19;1860;-43
2023/03/24 03:27:26;;;;;;;;;;;;;;;19.29;65.98;100955.50;7406086;19;2078;-43
2023/03/24 03:29:59;;;;;;;;;;;;;;;19.29;66.27;100950.13;7407415;19;1845;-43
2023/03/24 03:32:32;;;;;;;;;;;;;;;19.28;66.03;100948.44;7406824;19;2108;-43
2023/03/24 03:35:03;;;;;;;;;;;;;;;19.32;66.27;100944.53;7407735;19;1026;-43
2023/03/24 03:37:34;;;;;;;;;;;;;;;19.35;66.23;100954.97;7406657;19;2122;-43
2023/03/24 03:40:07;;;;;;;;;;;;;;;19.39;66.04;100956.38;7406710;19;2167;-44
2023/03/24 03:42:38;;;;;;;;;;;;;;;19.41;65.72;100957.09;7406224;19;2252;-43
2023/03/24 03:45:09;;;;;;;;;;;;;;;19.45;65.87;100961.22;7403854;19;2152;-43
2023/03/24 03:47:38;;;;;;;;;;;;;;;19.51;65.45;100954.47;7406753;19;1918;-43
2023/03/24 03:50:08;;;;;;;;;;;;;;;19.52;65.56;100960.69;7406098;19;1967;-43
2023/03/24 03:52:37;;;;;;;;;;;;;;;19.52;65.37;100964.22;7406708;19;2004;-43
2023/03/24 03:55:05;;;;;;;;;;;;;;;19.47;65.84;100963.78;7405877;19;1846;-43
2023/03/24 03:57:34;;;;;;;;;;;;;;;19.55;65.65;100968.47;7405556;19;1709;-43
2023/03/24 04:00:10;;;;;;;;;;;;;;;19.48;65.47;100960.97;7406792;19;1110;-43
2023/03/24 04:02:44;;;;;;;;;;;;;;;18.91;67.13;100981.06;7404961;19;2183;-43
2023/03/24 04:05:24;;;;;;;;;;;;;;;18.35;68.82;100970.56;7403118;19;1975;-44
2023/03/24 04:08:07;;;;;;;;;;;;;;;18.05;69.61;100980.97;7405142;19;1759;-43
2023/03/24 04:10:44;;;;;;;;;;;;;;;17.90;70.30;100992.88;7406022;19;2048;-43
2023/03/24 04:13:18;;;;;;;;;;;;;;;18.29;69.21;100988.81;7404825;19;1803;-43
2023/03/24 04:15:53;;;;;;;;;;;;;;;18.90;67.43;100998.16;7406128;19;1040;-43
2023/03/24 04:18:32;;;;;;;;;;;;;;;18.79;67.73;100995.47;7406238;19;1051;-43
2023/03/24 04:21:17;;;;;;;;;;;;;;;18.28;68.96;101005.88;7405507;19;1031;-43
2023/03/24 04:23:53;;;;;;;;;;;;;;;18.04;69.53;101014.03;7405268;19;1865;-43
2023/03/24 04:26:25;;;;;;;;;;;;;;;18.43;68.40;101006.44;7406037;19;979;-43
2023/03/24 04:29:01;;;;;;;;;;;;;;;18.91;66.90;101005.19;7404082;19;2127;-43
2023/03/24 04:31:36;;;;;;;;;;;;;;;19.23;65.85;101004.28;7402202;19;2175;-43
2023/03/24 04:34:06;;;;;;;;;;;;;;;19.15;66.07;100996.06;7406148;19;1022;-43
2023/03/24 04:36:41;;;;;;;;;;;;;;;19.26;66.05;101012.09;7403006;19;2243;-43
2023/03/24 04:39:10;;;;;;;;;;;;;;;19.26;65.67;101012.09;7402001;19;1824;-43
2023/03/24 04:41:39;;;;;;;;;;;;;;;19.24;66.08;101006.00;7403960;19;2097;-43
2023/03/24 04:44:09;;;;;;;;;;;;;;;19.26;65.81;101014.75;7402412;19;1999;-43
2023/03/24 04:46:40;;;;;;;;;;;;;;;19.19;65.60;101002.84;7405789;19;1003;-43
2023/03/24 04:49:09;;;;;;;;;;;;;;;19.21;65.94;101008.94;7404591;19;1823;-43
2023/03/24 04:51:37;;;;;;;;;;;;;;;19.31;65.81;101012.53;7403721;19;2140;-43
2023/03/24 04:54:05;;;;;;;;;;;;;;;19.27;65.81;101005.72;7403476;19;2113;-43
2023/03/24 04:56:38;;;;;;;;;;;;;;;19.30;65.75;101007.28;7403935;19;2058;-43
2023/03/24 04:59:07;;;;;;;;;;;;;;;19.35;65.45;101016.63;7404095;19;1768;-43
2023/03/24 05:01:36;;;;;;;;;;;;;;;19.32;65.69;101013.38;7403175;19;1844;-43
2023/03/24 05:04:08;;;;;;;;;;;;;;;19.38;65.27;101019.06;7404274;19;1856;-43
2023/03/24 05:06:36;;;;;;;;;;;;;;;19.34;65.89;101025.69;7402262;19;2182;-43
2023/03/24 05:09:06;;;;;;;;;;;;;;;19.38;65.61;101013.72;7402244;19;1619;-43
2023/03/24 05:11:34;;;;;;;;;;;;;;;19.03;66.55;101033.63;7403234;19;1843;-43
2023/03/24 05:14:02;;;;;;;;;;;;;;;18.58;67.89;101036.47;7399936;19;2093;-43
2023/03/24 05:16:31;;;;;;;;;;;;;;;18.49;68.26;101038.06;7399282;19;2168;-43
2023/03/24 05:19:00;;;;;;;;;;;;;;;18.84;66.93;101037.03;7399765;19;1795;-43
2023/03/24 05:21:31;;;;;;;;;;;;;;;19.66;64.81;101028.25;7399679;19;1816;-44
2023/03/24 05:23:59;;;;;;;;;;;;;;;20.85;61.29;101031.19;7400377;19;1866;-44
2023/03/24 05:26:29;;;;;;;;;;;;;;;20.24;62.13;101029.50;7401480;19;1888;-44
2023/03/24 05:28:57;;;;;;;;;;;;;;;19.78;63.11;101036.25;7403344;19;1833;-44
2023/03/24 05:31:25;;;;;;;;;;;;;;;20.00;62.53;101029.84;7399889;19;2248;-44
2023/03/24 05:33:54;;;;;;;;;;;;;;;20.08;62.15;101030.03;7403071;19;1381;-44
2023/03/24 05:36:22;;;;;;;;;;;;;;;20.20;63.05;101026.22;7400901;19;2189;-43
2023/03/24 05:38:53;;;;;;;;;;;;;;;20.02;63.22;101026.03;7400763;19;1821;-43
2023/03/24 05:41:21;;;;;;;;;;;;;;;19.66;63.77;101038.16;7401070;19;1853;-45
2023/03/24 05:43:50;;;;;;;;;;;;;;;19.30;62.33;101021.56;7401980;19;1826;-43
2023/03/24 05:46:18;;;;;;;;;;;;;;;19.57;62.89;101031.72;7397843;19;2153;-44
2023/03/24 05:48:50;;;;;;;;;;;;;;;19.76;62.04;101028.34;7399063;19;1854;-43
2023/03/24 05:51:18;;;;;;;;;;;;;;;20.00;61.84;101027.16;7399284;19;2179;-43
2023/03/24 05:53:46;;;;;;;;;;;;;;;20.04;61.91;101028.59;7402351;19;1972;-43
2023/03/24 05:56:17;;;;;;;;;;;;;;;20.02;62.07;101027.88;7401589;19;2024;-43
2023/03/24 05:58:46;;;;;;;;;;;;;;;19.96;62.39;101031.94;7401503;19;1928;-44
2023/03/24 06:01:17;;;;;;;;;;;;;;;19.91;62.36;101028.81;7400990;19;1951;-44
2023/03/24 06:03:45;;;;;;;;;;;;;;;19.68;62.85;101025.44;7399585;19;1646;-44
2023/03/24 06:06:15;;;;;;;;;;;;;;;19.44;63.52;101028.44;7397249;19;2205;-44
2023/03/24 06:08:44;;;;;;;;;;;;;;;19.24;64.54;101027.44;7399097;19;2386;-44
2023/03/24 06:11:13;;;;;;;;;;;;;;;19.00;64.70;101031.22;7393002;19;1974;-44
2023/03/24 06:13:45;;;;;;;;;;;;;;;18.91;64.87;101029.31;7397744;19;1797;-44
2023/03/24 06:16:13;;;;;;;;;;;;;;;18.81;64.18;101025.69;7399768;19;1847;-44
2023/03/24 06:18:42;;;;;;;;;;;;;;;18.67;62.50;101019.63;7400551;19;1863;-44
2023/03/24 06:21:10;;;;;;;;;;;;;;;18.65;63.27;101018.91;7399677;19;1713;-44
2023/03/24 06:23:38;;;;;;;;;;;;;;;18.71;63.56;101033.63;7397219;19;2128;-44
2023/03/24 06:26:09;;;;;;;;;;;;;;;18.69;64.12;101023.03;7396948;19;2184;-44
2023/03/24 06:28:38;;;;;;;;;;;;;;;18.73;64.29;101038.84;7397421;19;1817;-44
2023/03/24 06:31:13;;;;;;;;;;;;;;;18.71;64.64;101025.56;7397135;19;2024;-44
2023/03/24 06:33:41;;;;;;;;;;;;;;;18.75;65.09;101043.09;7400531;19;1730;-44
2023/03/24 06:36:11;;;;;;;;;;;;;;;18.68;65.16;101039.22;7399568;19;1903;-44
2023/03/24 06:38:39;;;;;;;;;;;;;;;18.74;65.03;101048.56;7394968;19;1832;-43
2023/03/24 06:41:08;;;;;;;;;;;;;;;18.65;65.60;101037.66;7398583;19;1636;-43
2023/03/24 06:43:36;;;;;;;;;;;;;;;18.68;65.85;101048.13;7398993;19;1720;-44
2023/03/24 06:46:05;;;;;;;;;;;;;;;18.73;65.64;101049.56;7399233;19;1851;-44
2023/03/24 06:48:37;;;;;;;;;;;;;;;18.69;65.97;101049.81;7398023;19;2129;-44
2023/03/24 06:51:05;;;;;;;;;;;;;;;18.67;65.96;101040.22;7397837;19;1719;-44
2023/03/24 06:53:33;;;;;;;;;;;;;;;18.64;66.02;101051.16;7398181;19;1816;-44
2023/03/24 06:56:02;;;;;;;;;;;;;;;18.62;66.21;101059.34;7397420;19;1788;-44
2023/03/24 06:58:30;;;;;;;;;;;;;;;18.61;66.53;101041.56;7397406;19;2001;-43
2023/03/24 07:00:59;;;;;;;;;;;;;;;18.62;66.67;101040.59;7398324;19;1806;-44
2023/03/24 07:03:27;;;;;;;;;;;;;;;18.62;66.45;101015.63;7396455;19;1672;-44
2023/03/24 07:05:58;;;;;;;;;;;;;;;18.61;66.63;101036.19;7393032;19;1868;-46
2023/03/24 07:08:26;;;;;;;;;;;;;;;18.63;66.42;101028.88;7394264;19;1832;-44
2023/03/24 07:10:55;;;;;;;;;;;;;;;18.58;66.72;101049.00;7393049;19;1843;-44
2023/03/24 07:13:23;;;;;;;;;;;;;;;18.58;67.00;101039.16;7393405;19;1792;-44
2023/03/24 07:15:51;;;;;;;;;;;;;;;18.57;66.75;101023.19;7394165;19;1710;-44
2023/03/24 07:18:20;;;;;;;;;;;;;;;18.52;67.18;101039.63;7394944;19;1853;-44
2023/03/24 07:20:48;;;;;;;;;;;;;;;18.57;67.11;101034.75;7392306;19;1692;-44
2023/03/24 07:23:19;;;;;;;;;;;;;;;18.57;66.99;101033.91;7392881;19;1822;-44
2023/03/24 07:25:47;;;;;;;;;;;;;;;18.62;66.92;101037.91;7391013;19;1852;-44
2023/03/24 07:28:16;;;;;;;;;;;;;;;18.65;67.19;101029.59;7392364;19;1794;-44
2023/03/24 07:30:44;;;;;;;;;;;;;;;18.69;67.15;101028.38;7393676;19;1774;-44
2023/03/24 07:33:13;;;;;;;;;;;;;;;18.69;66.93;101040.94;7392723;19;1929;-44
2023/03/24 07:35:41;;;;;;;;;;;;;;;18.66;66.01;101034.00;7393822;19;1831;-44
2023/03/24 07:38:09;;;;;;;;;;;;;;;18.63;65.32;101026.22;7404564;19;2120;-44
2023/03/24 07:40:40;;;;;;;;;;;;;;;18.63;65.88;101023.53;7406677;19;2135;-44
2023/03/24 07:43:08;;;;;;;;;;;;;;;18.61;64.69;101014.78;7407882;19;1007;-44
2023/03/24 07:45:37;;;;;;;;;;;;;;;18.64;65.09;101033.28;7405887;19;1860;-44
2023/03/24 07:48:05;;;;;;;;;;;;;;;18.58;65.12;101031.13;7404158;19;2195;-44
2023/03/24 07:50:34;;;;;;;;;;;;;;;18.59;64.55;101031.97;7405103;19;1699;-44
2023/03/24 07:53:02;;;;;;;;;;;;;;;18.57;63.66;101020.53;7405527;19;2056;-44
2023/03/24 07:55:31;;;;;;;;;;;;;;;18.54;63.72;101028.78;7406309;19;1829;-44
2023/03/24 07:58:01;;;;;;;;;;;;;;;18.52;63.72;101012.84;7406521;19;2007;-44
2023/03/24 08:00:31;;;;;;;;;;;;;;;18.53;63.34;101027.94;7406688;19;1065;-44
2023/03/24 08:03:00;;;;;;;;;;;;;;;18.53;63.51;101027.09;7407022;19;959;-44
2023/03/24 08:05:30;;;;;;;;;;;;;;;18.54;63.17;101024.28;7404171;19;1838;-44
2023/03/24 08:07:59;;;;;;;;;;;;;;;18.53;62.80;101027.94;7405608;19;1762;-44
2023/03/24 08:10:28;;;;;;;;;;;;;;;18.50;62.88;101020.16;7406418;19;1039;-44
2023/03/24 08:12:57;;;;;;;;;;;;;;;18.51;62.64;101013.84;7406206;19;1091;-44
2023/03/24 08:15:28;;;;;;;;;;;;;;;18.48;62.84;101019.44;7405432;19;2111;-44
2023/03/24 08:17:57;;;;;;;;;;;;;;;18.47;61.74;101013.22;7405033;19;2157;-44
2023/03/24 08:20:28;;;;;;;;;;;;;;;18.49;62.73;101007.75;7404738;19;1748;-44
2023/03/24 08:22:56;;;;;;;;;;;;;;;18.45;62.19;101011.66;7405158;19;2063;-44
2023/03/24 08:25:26;;;;;;;;;;;;;;;18.44;62.42;101008.16;7404624;19;2004;-44
2023/03/24 08:27:55;;;;;;;;;;;;;;;18.45;62.28;101001.78;7404844;19;2049;-44
2023/03/24 08:30:25;;;;;;;;;;;;;;;18.48;61.95;100996.19;7404548;19;1918;-44
2023/03/24 08:32:56;;;;;;;;;;;;;;;18.46;62.24;101003.50;7403335;19;1946;-44
2023/03/24 08:35:26;;;;;;;;;;;;;;;18.49;61.13;100997.88;7405171;19;2097;-44
2023/03/24 08:37:54;;;;;;;;;;;;;;;18.56;60.34;100990.22;7404792;19;1232;-44
2023/03/24 08:40:24;;;;;;;;;;;;;;;18.52;61.33;100987.91;7405094;19;1920;-44
2023/03/24 08:42:53;;;;;;;;;;;;;;;18.57;59.76;100988.38;7404433;19;2116;-44
2023/03/24 08:45:23;;;;;;;;;;;;;;;18.54;60.43;100989.47;7404000;19;2118;-44
2023/03/24 08:47:52;;;;;;;;;;;;;;;18.49;60.64;100997.03;7404302;19;2127;-44
2023/03/24 08:50:24;;;;;;;;;;;;;;;18.43;60.83;100987.69;7404195;19;1758;-44
2023/03/24 08:52:52;;;;;;;;;;;;;;;18.47;59.57;100991.81;7404417;19;994;-44
2023/03/24 08:55:21;;;;;;;;;;;;;;;18.47;59.26;100990.97;7404847;19;2195;-44
2023/03/24 08:57:50;;;;;;;;;;;;;;;18.41;60.56;101007.53;7403737;19;1936;-44
2023/03/24 09:00:20;;;;;;;;;;;;;;;18.37;59.97;100985.50;7403442;19;2114;-44
2023/03/24 09:02:50;;;;;;;;;;;;;;;18.39;59.81;100999.63;7403980;19;1695;-44
2023/03/24 09:05:19;;;;;;;;;;;;;;;18.40;60.25;100993.31;7404864;19;2116;-43
2023/03/24 09:07:51;;;;;;;;;;;;;;;18.38;59.81;100989.03;7404321;19;1003;-44
2023/03/24 09:10:21;;;;;;;;;;;;;;;18.37;59.95;100980.16;7404792;19;2077;-44
2023/03/24 09:12:49;;;;;;;;;;;;;;;18.44;58.97;100986.72;7403846;19;1744;-44
2023/03/24 09:15:17;;;;;;;;;;;;;;;18.44;59.08;100976.00;7403537;19;1907;-43
2023/03/24 09:17:46;;;;;;;;;;;;;;;18.40;59.65;100958.50;7402839;19;1878;-44
2023/03/24 09:20:17;;;;;;;;;;;;;;;18.41;59.34;100970.91;7403047;19;1861;-44
2023/03/24 09:22:47;;;;;;;;;;;;;;;18.40;58.98;100968.34;7402534;19;2011;-44
2023/03/24 09:25:19;;;;;;;;;;;;;;;18.43;58.30;100973.44;7402738;19;2037;-43
2023/03/24 09:27:48;;;;;;;;;;;;;;;18.42;58.31;100980.66;7402121;19;2084;-44
2023/03/24 09:30:17;;;;;;;;;;;;;;;18.43;58.26;100974.28;7403330;19;1022;-44
2023/03/24 09:32:45;;;;;;;;;;;;;;;18.39;59.15;100970.16;7402359;19;2229;-44
2023/03/24 09:35:14;;;;;;;;;;;;;;;18.38;59.20;100981.88;7402418;19;2099;-44
2023/03/24 09:37:43;;;;;;;;;;;;;;;18.44;58.61;100977.81;7401769;19;1223;-44
2023/03/24 09:40:19;;;;;;;;;;;;;;;18.44;58.96;100964.44;7403102;19;2153;-44
2023/03/24 09:42:54;;;;;;;;;;;;;;;18.39;58.53;100972.00;7402593;19;2152;-44
2023/03/24 09:45:24;;;;;;;;;;;;;;;18.43;57.81;100957.38;7402547;19;2176;-44
2023/03/24 09:47:58;;;;;;;;;;;;;;;18.40;58.14;100952.28;7397057;19;2527;-44
2023/03/24 09:50:27;;;;;;;;;;;;;;;18.38;58.85;100951.56;7402353;19;2041;-44
2023/03/24 09:52:56;;;;;;;;;;;;;;;18.41;58.69;100957.50;7403100;19;1058;-44
2023/03/24 09:55:26;;;;;;;;;;;;;;;18.38;57.86;100948.88;7402737;19;2037;-44
2023/03/24 09:57:58;;;;;;;;;;;;;;;18.32;58.30;100936.00;7402333;19;1954;-44
2023/03/24 10:00:28;;;;;;;;;;;;;;;18.32;58.03;100927.97;7400448;19;2131;-44
2023/03/24 10:03:00;;;;;;;;;;;;;;;18.32;58.14;100946.72;7400937;19;2102;-44
2023/03/24 10:05:30;;;;;;;;;;;;;;;18.31;57.90;100935.16;7401789;19;2124;-43
2023/03/24 10:08:01;;;;;;;;;;;;;;;18.31;58.07;100937.84;7401629;19;2080;-44
2023/03/24 10:10:35;;;;;;;;;;;;;;;18.32;57.82;100947.53;7402620;19;1966;-44
2023/03/24 10:13:08;;;;;;;;;;;;;;;18.29;57.16;100935.28;7399164;19;2042;-43
2023/03/24 10:15:41;;;;;;;;;;;;;;;18.30;57.67;100936.13;7401770;19;2053;-44
2023/03/24 10:18:24;;;;;;;;;;;;;;;18.29;57.54;100932.59;7400969;19;2057;-44
2023/03/24 10:20:56;;;;;;;;;;;;;;;18.28;57.95;100932.72;7401118;19;1867;-44
2023/03/24 10:23:29;;;;;;;;;;;;;;;18.25;58.34;100927.63;7401216;19;2005;-44
2023/03/24 10:26:03;;;;;;;;;;;;;;;18.24;58.10;100929.47;7401313;19;2071;-44
2023/03/24 10:28:38;;;;;;;;;;;;;;;18.28;58.22;100911.31;7400936;19;1906;-44
2023/03/24 10:31:10;;;;;;;;;;;;;;;18.27;57.69;100925.69;7402371;19;1058;-43
2023/03/24 10:33:41;;;;;;;;;;;;;;;18.27;56.82;100928.34;7401410;19;1027;-44
2023/03/24 10:36:11;;;;;;;;;;;;;;;18.26;57.23;100922.16;7398552;19;2143;-44
2023/03/24 10:38:39;;;;;;;;;;;;;;;18.20;58.01;100919.97;7399779;19;2068;-44
2023/03/24 10:41:07;;;;;;;;;;;;;;;18.22;57.77;100915.38;7400690;19;2008;-44
2023/03/24 10:43:38;;;;;;;;;;;;;;;18.22;58.12;100920.72;7401188;19;2011;-44
2023/03/24 10:46:07;;;;;;;;;;;;;;;18.23;57.62;100914.38;7400816;19;1841;-44
2023/03/24 10:48:37;;;;;;;;;;;;;;;18.22;57.70;100890.41;7398606;19;2186;-44
2023/03/24 10:51:06;;;;;;;;;;;;;;;18.21;58.53;100905.63;7400789;19;2025;-44
2023/03/24 10:53:35;;;;;;;;;;;;;;;18.22;58.22;100893.06;7400393;19;2052;-44
2023/03/24 10:56:03;;;;;;;;;;;;;;;18.21;57.06;100896.75;7400782;19;2127;-44
2023/03/24 10:58:37;;;;;;;;;;;;;;;18.19;57.75;100875.44;7400543;19;2046;-43
2023/03/24 11:01:11;;;;;;;;;;;;;;;18.17;58.28;100882.75;7400346;19;2052;-44
2023/03/24 11:03:40;;;;;;;;;;;;;;;18.20;58.08;100882.50;7401010;19;1262;-44
2023/03/24 11:06:09;;;;;;;;;;;;;;;18.17;58.16;100877.41;7397309;19;1957;-44
2023/03/24 11:08:38;;;;;;;;;;;;;;;18.16;58.29;100865.00;7400375;19;2275;-44
2023/03/24 11:11:16;;;;;;;;;;;;;;;18.15;58.49;100875.84;7400930;19;2162;-44
2023/03/24 11:13:55;;;;;;;;;;;;;;;18.13;58.05;100865.25;7407549;19;2001;-44
2023/03/24 11:16:28;;;;;;;;;;;;;;;18.12;59.02;100858.19;7406901;19;2100;-44
2023/03/24 11:18:57;;;;;;;;;;;;;;;18.13;59.18;100859.91;7407609;19;2033;-44
2023/03/24 11:21:26;;;;;;;;;;;;;;;18.15;59.13;100847.25;7407227;19;1794;-44
2023/03/24 11:23:54;;;;;;;;;;;;;;;18.13;59.18;100843.84;7408020;19;1024;-44
2023/03/24 11:26:24;;;;;;;;;;;;;;;18.13;58.97;100833.16;7406300;19;2227;-44
2023/03/24 11:28:54;;;;;;;;;;;;;;;18.17;58.87;100839.94;7406804;19;2259;-44
2023/03/24 11:31:29;;;;;;;;;;;;;;;18.17;57.88;100845.28;7403904;19;2528;-44
2023/03/24 11:33:59;;;;;;;;;;;;;;;18.16;57.46;100842.72;7407756;19;1003;-44
2023/03/24 11:36:51;;;;;;;;;;;;;;;18.14;58.09;100840.19;7404463;19;1933;-44
2023/03/24 11:39:21;;;;;;;;;;;;;;;18.13;58.04;100833.16;7401784;19;2260;-44
2023/03/24 11:42:02;;;;;;;;;;;;;;;18.14;57.52;100823.28;7405779;19;1940;-44
2023/03/24 11:44:32;;;;;;;;;;;;;;;18.14;57.70;100829.47;7405639;19;1945;-44
2023/03/24 11:47:05;;;;;;;;;;;;;;;18.13;57.04;100827.78;7404696;19;1865;-44
2023/03/24 11:49:36;;;;;;;;;;;;;;;18.15;56.76;100820.47;7405682;19;2186;-44
2023/03/24 11:52:06;;;;;;;;;;;;;;;18.13;57.63;100806.38;7405947;19;2146;-44
2023/03/24 11:54:37;;;;;;;;;;;;;;;18.13;56.43;100809.06;7405924;19;2050;-44
2023/03/24 11:57:08;;;;;;;;;;;;;;;18.14;56.55;100808.06;7405490;19;2000;-44
2023/03/24 11:59:39;;;;;;;;;;;;;;;18.16;55.95;100811.47;7405174;19;2444;-44
2023/03/24 12:02:19;;;;;;;;;;;;;;;18.15;56.38;100807.09;7404872;19;1975;-44
2023/03/24 12:04:53;;;;;;;;;;;;;;;18.14;57.89;100797.34;7406103;19;1045;-44
2023/03/24 12:07:39;;;;;;;;;;;;;;;17.69;56.80;100717.28;7404064;19;2199;-44
2023/03/24 12:10:14;;;;;;;;;;;;;;;18.13;55.60;100789.47;7405715;19;2263;-44
2023/03/24 12:12:46;;;;;;;;;;;;;;;18.14;57.20;100802.72;7405296;19;2083;-44
2023/03/24 12:15:24;;;;;;;;;;;;;;;18.13;56.54;100795.69;7404822;19;2078;-44
2023/03/24 12:18:00;;;;;;;;;;;;;;;18.13;54.42;100793.00;7405672;19;2036;-44
2023/03/24 12:20:32;;;;;;;;;;;;;;;18.13;56.29;100794.84;7405360;19;2195;-44
2023/03/24 12:23:02;;;;;;;;;;;;;;;18.16;56.03;100783.84;7403838;19;1851;-44
2023/03/24 12:25:35;;;;;;;;;;;;;;;18.14;54.60;100792.00;7404801;19;1749;-44
2023/03/24 12:28:15;;;;;;;;;;;;;;;18.11;54.86;100765.53;7403095;19;2154;-44
2023/03/24 12:30:47;;;;;;;;;;;;;;;18.11;55.03;100770.88;7404515;19;1848;-44
2023/03/24 12:33:27;;;;;;;;;;;;;;;18.08;56.15;100765.75;7405578;19;959;-44
2023/03/24 12:36:03;;;;;;;;;;;;;;;18.13;56.03;100768.91;7393822;19;2062;-44
2023/03/24 12:38:44;;;;;;;;;;;;;;;18.11;56.88;100786.94;7401713;19;1992;-43
2023/03/24 12:41:23;;;;;;;;;;;;;;;18.13;57.32;100763.56;7402681;19;1573;-43
2023/03/24 12:43:59;;;;;;;;;;;;;;;18.14;56.65;100764.41;7402259;19;1992;-43
2023/03/24 12:46:34;;;;;;;;;;;;;;;18.16;56.65;100752.56;7403306;19;1857;-43
2023/03/24 12:49:21;;;;;;;;;;;;;;;18.14;57.22;100773.28;7401314;19;2164;-43
2023/03/24 12:51:53;;;;;;;;;;;;;;;18.11;58.09;100754.81;7402116;19;1837;-43
2023/03/24 12:54:31;;;;;;;;;;;;;;;18.08;57.71;100741.69;7402313;19;2086;-42
2023/03/24 12:57:01;;;;;;;;;;;;;;;18.08;58.09;100744.34;7403163;19;1875;-43
2023/03/24 12:59:33;;;;;;;;;;;;;;;18.05;57.93;100745.47;7402286;19;2062;-43
2023/03/24 13:02:05;;;;;;;;;;;;;;;18.04;58.35;100732.22;7401108;19;1809;-43
2023/03/24 13:04:40;;;;;;;;;;;;;;;18.09;58.05;100725.50;7401701;19;1672;-43
2023/03/24 13:07:13;;;;;;;;;;;;;;;18.10;58.16;100737.03;7398788;19;1888;-43
2023/03/24 13:09:45;;;;;;;;;;;;;;;18.06;58.66;100724.91;7401132;19;1622;-42
2023/03/24 13:12:15;;;;;;;;;;;;;;;18.07;57.82;100743.50;7401611;19;1939;-43